createdAt,value
2023-01-08T00:00:22.306Z,16.20
2023-01-08T00:02:51.236Z,17.38
2023-01-08T00:05:18.771Z,15.55
2023-01-08T00:07:47.557Z,15.32
2023-01-08T00:10:15.219Z,13.82
2023-01-08T00:12:42.691Z,16.00
2023-01-08T00:15:10.729Z,15.50
2023-01-08T00:17:38.182Z,14.82
2023-01-08T00:20:07.112Z,17.45
2023-01-08T00:22:34.618Z,16.45
2023-01-08T00:25:03.590Z,16.45
2023-01-08T00:27:31.212Z,17.45
2023-01-08T00:29:58.809Z,16.58
2023-01-08T00:32:26.288Z,17.02
2023-01-08T00:34:54.534Z,16.55
2023-01-08T00:37:22.017Z,16.70
2023-01-08T00:39:49.510Z,16.63
2023-01-08T00:42:18.313Z,17.27
2023-01-08T00:44:45.869Z,15.82
2023-01-08T00:47:14.441Z,14.82
2023-01-08T00:49:42.397Z,15.77
2023-01-08T00:52:09.886Z,14.65
2023-01-08T00:54:37.354Z,15.90
2023-01-08T00:57:04.933Z,17.45
2023-01-08T00:59:33.731Z,15.77
2023-01-08T01:02:01.295Z,16.38
2023-01-08T01:04:29.156Z,18.27
2023-01-08T01:06:56.743Z,16.00
2023-01-08T01:09:24.270Z,15.95
2023-01-08T01:11:51.742Z,15.10
2023-01-08T01:14:19.285Z,14.43
2023-01-08T01:16:48.710Z,15.65
2023-01-08T01:19:16.792Z,15.63
2023-01-08T01:21:44.854Z,15.40
2023-01-08T01:24:13.751Z,15.48
2023-01-08T01:26:42.150Z,15.73
2023-01-08T01:29:09.914Z,16.50
2023-01-08T01:31:37.379Z,16.63
2023-01-08T01:34:06.231Z,13.00
2023-01-08T01:36:33.688Z,13.35
2023-01-08T01:39:01.135Z,15.57
2023-01-08T01:41:31.373Z,15.75
2023-01-08T01:44:00.590Z,15.77
2023-01-08T01:46:37.538Z,15.00
2023-01-08T01:49:10.645Z,14.52
2023-01-08T01:51:42.001Z,14.45
2023-01-08T01:54:12.364Z,13.40
2023-01-08T01:56:40.122Z,13.90
2023-01-08T01:59:07.963Z,15.45
2023-01-08T02:01:36.107Z,14.25
2023-01-08T02:04:03.818Z,12.90
2023-01-08T02:06:38.077Z,13.20
2023-01-08T02:09:10.431Z,13.88
2023-01-08T02:11:46.296Z,14.50
2023-01-08T02:14:23.787Z,14.40
2023-01-08T02:16:58.345Z,14.05
2023-01-08T02:19:41.219Z,13.35
2023-01-08T02:22:23.026Z,13.70
2023-01-08T02:24:57.032Z,13.30
2023-01-08T02:27:29.058Z,12.75
2023-01-08T02:29:57.937Z,12.60
2023-01-08T02:32:28.253Z,12.02
2023-01-08T02:34:56.494Z,13.35
2023-01-08T02:37:24.235Z,13.27
2023-01-08T02:40:08.111Z,12.13
2023-01-08T02:42:44.325Z,14.20
2023-01-08T02:45:22.532Z,12.88
2023-01-08T02:47:54.955Z,12.20
2023-01-08T02:50:27.054Z,14.15
2023-01-08T02:53:02.308Z,14.82
2023-01-08T02:55:32.439Z,12.95
2023-01-08T02:58:01.767Z,13.75
2023-01-08T03:00:30.560Z,15.25
2023-01-08T03:03:06.899Z,13.77
2023-01-08T03:05:35.265Z,14.32
2023-01-08T03:08:03.639Z,15.40
2023-01-08T03:10:32.818Z,19.98
2023-01-08T03:13:07.217Z,18.90
2023-01-08T03:15:42.412Z,13.90
2023-01-08T04:18:50.007Z,13.85
2023-01-08T04:21:17.606Z,16.45
2023-01-08T04:23:45.359Z,15.27
2023-01-08T04:26:12.986Z,16.27
2023-01-08T04:28:40.470Z,17.02
2023-01-08T04:31:09.209Z,17.42
2023-01-08T04:33:36.992Z,16.27
2023-01-08T04:36:06.843Z,14.23
2023-01-08T04:38:34.334Z,16.00
2023-01-08T04:41:02.745Z,14.20
2023-01-08T04:43:30.790Z,15.20
2023-01-08T04:45:59.100Z,16.98
2023-01-08T04:48:26.653Z,16.60
2023-01-08T04:50:54.406Z,15.95
2023-01-08T04:53:23.267Z,18.80
2023-01-08T04:55:50.838Z,14.45
2023-01-08T04:58:18.401Z,15.60
2023-01-08T05:00:45.936Z,13.82
2023-01-08T05:03:14.806Z,15.65
2023-01-08T05:05:42.406Z,15.32
2023-01-08T05:08:09.908Z,13.25
2023-01-08T05:10:38.756Z,14.90
2023-01-08T05:13:06.286Z,14.13
2023-01-08T05:15:34.042Z,17.98
2023-01-08T05:18:02.492Z,15.32
2023-01-08T05:20:30.191Z,15.93
2023-01-08T05:22:58.499Z,15.05
2023-01-08T05:25:26.526Z,14.32
2023-01-08T05:27:55.355Z,16.20
2023-01-08T05:30:22.862Z,16.17
2023-01-08T05:32:50.400Z,12.98
2023-01-08T05:35:18.021Z,16.40
2023-01-08T05:37:45.520Z,15.75
2023-01-08T05:40:13.475Z,14.63
2023-01-08T05:42:41.075Z,13.73
2023-01-08T05:45:10.664Z,14.43
2023-01-08T05:47:38.202Z,14.13
2023-01-08T05:50:06.424Z,13.43
2023-01-08T05:52:34.002Z,14.90
2023-01-08T05:55:01.502Z,11.50
2023-01-08T05:57:28.988Z,15.13
2023-01-08T05:59:56.487Z,15.82
2023-01-08T06:02:25.459Z,16.10
2023-01-08T06:04:52.948Z,15.75
2023-01-08T06:07:20.480Z,17.65
2023-01-08T06:09:48.035Z,16.17
2023-01-08T06:12:15.549Z,14.50
2023-01-08T06:14:43.065Z,16.02
2023-01-08T06:17:10.589Z,14.00
2023-01-08T06:19:40.125Z,13.60
2023-01-08T06:22:07.601Z,14.48
2023-01-08T06:24:35.070Z,14.40
2023-01-08T06:27:02.548Z,12.43
2023-01-08T06:29:30.029Z,11.20
2023-01-08T06:31:57.492Z,14.00
2023-01-08T06:34:25.001Z,13.82
2023-01-08T06:36:53.879Z,13.40
2023-01-08T06:39:21.353Z,15.30
2023-01-08T06:41:48.843Z,14.80
2023-01-08T06:44:16.352Z,12.90
2023-01-08T06:46:43.986Z,17.20
2023-01-08T06:49:11.821Z,13.88
2023-01-08T06:51:39.302Z,14.82
2023-01-08T06:54:08.159Z,13.05
2023-01-08T06:56:48.993Z,12.20
2023-01-08T06:59:20.632Z,13.23
2023-01-08T07:01:48.292Z,15.95
2023-01-08T07:04:15.870Z,13.57
2023-01-08T07:06:43.359Z,14.52
2023-01-08T07:09:14.062Z,15.40
2023-01-08T07:11:41.962Z,14.93
2023-01-08T07:14:09.729Z,14.73
2023-01-08T07:16:39.304Z,13.45
2023-01-08T07:19:06.897Z,14.88
2023-01-08T07:21:34.363Z,14.60
2023-01-08T07:24:01.872Z,13.95
2023-01-08T07:26:30.752Z,14.38
2023-01-08T07:28:58.269Z,17.33
2023-01-08T07:31:26.103Z,15.52
2023-01-08T07:33:53.761Z,15.68
2023-01-08T07:36:23.013Z,16.20
2023-01-08T07:38:50.796Z,15.13
2023-01-08T07:41:18.818Z,14.65
2023-01-08T07:43:49.392Z,14.57
2023-01-08T07:46:17.451Z,15.98
2023-01-08T07:48:45.023Z,16.50
2023-01-08T07:51:12.562Z,16.40
2023-01-08T07:53:40.076Z,15.35
2023-01-08T07:56:09.894Z,17.13
2023-01-08T07:58:37.780Z,17.75
2023-01-08T08:01:10.517Z,16.33
2023-01-08T08:06:06.802Z,16.90
2023-01-08T08:08:34.331Z,16.73
2023-01-08T08:11:01.867Z,15.27
2023-01-08T08:13:29.405Z,17.13
2023-01-08T08:15:56.944Z,14.82
2023-01-08T08:18:25.767Z,17.70
2023-01-08T08:20:53.318Z,18.83
2023-01-08T08:23:20.820Z,19.48
2023-01-08T08:25:48.339Z,19.67
2023-01-08T08:28:15.864Z,22.80
2023-01-08T08:30:43.406Z,24.55
2023-01-08T08:33:11.902Z,18.77
2023-01-08T08:35:41.043Z,19.08
2023-01-08T08:38:08.556Z,15.75
2023-01-08T08:40:36.072Z,17.80
2023-01-08T08:43:05.137Z,17.67
2023-01-08T08:45:32.738Z,15.00
2023-01-08T08:48:00.307Z,18.55
2023-01-08T08:50:27.852Z,17.92
2023-01-08T08:53:01.394Z,17.52
2023-01-08T08:55:29.521Z,17.48
2023-01-08T08:58:04.137Z,19.13
2023-01-08T09:00:31.766Z,15.60
2023-01-08T09:03:00.189Z,16.48
2023-01-08T09:05:28.775Z,14.52
2023-01-08T09:07:57.468Z,18.77
2023-01-08T09:10:26.441Z,16.10
2023-01-08T09:12:54.617Z,17.95
2023-01-08T09:15:22.221Z,15.43
2023-01-08T09:17:53.968Z,14.30
2023-01-08T09:20:21.644Z,17.30
2023-01-08T09:22:49.229Z,14.77
2023-01-08T09:25:17.042Z,17.20
2023-01-08T09:27:46.103Z,18.20
2023-01-08T09:30:13.840Z,14.00
2023-01-08T09:32:41.324Z,13.65
2023-01-08T09:35:09.644Z,15.10
2023-01-08T09:37:37.155Z,13.68
2023-01-08T09:40:15.723Z,13.80
2023-01-08T09:42:43.503Z,14.70
2023-01-08T09:45:22.836Z,13.13
2023-01-08T09:47:50.687Z,15.02
2023-01-08T09:50:18.684Z,12.82
2023-01-08T09:52:46.825Z,11.25
2023-01-08T09:55:16.137Z,10.60
2023-01-08T09:57:44.541Z,10.85
2023-01-08T10:00:17.281Z,17.83
2023-01-08T10:05:15.514Z,12.23
2023-01-08T10:07:43.397Z,19.73
2023-01-08T10:10:18.474Z,13.30
2023-01-08T10:12:46.844Z,11.68
2023-01-08T10:15:18.210Z,9.98
2023-01-08T10:17:48.244Z,5.78
2023-01-08T10:20:17.729Z,7.38
2023-01-08T10:22:45.620Z,8.82
2023-01-08T10:25:16.527Z,7.90
2023-01-08T10:27:49.082Z,8.45
2023-01-08T10:30:19.657Z,5.93
2023-01-08T10:32:49.527Z,4.07
2023-01-08T10:35:19.921Z,5.75
2023-01-08T10:37:50.189Z,3.97
2023-01-08T10:40:31.216Z,1.98
2023-01-08T10:43:07.906Z,1.73
2023-01-08T10:45:36.847Z,1.70
2023-01-08T10:48:08.194Z,1.33
2023-01-08T10:50:36.287Z,0.70
2023-01-08T10:53:05.770Z,0.90
2023-01-08T10:55:35.980Z,1.20
2023-01-08T10:58:05.837Z,2.88
2023-01-08T11:00:37.097Z,1.55
2023-01-08T11:03:07.285Z,1.25
2023-01-08T11:05:36.562Z,2.72
2023-01-08T11:08:07.810Z,3.05
2023-01-08T11:10:37.529Z,5.45
2023-01-08T11:13:09.030Z,3.05
2023-01-08T11:15:40.020Z,0.85
2023-01-08T11:18:14.249Z,1.48
2023-01-08T11:20:42.083Z,1.02
2023-01-08T11:23:17.824Z,1.27
2023-01-08T11:25:50.486Z,2.70
2023-01-08T11:28:34.522Z,1.00
2023-01-08T11:31:14.682Z,1.40
2023-01-08T11:33:43.482Z,2.17
2023-01-08T11:36:17.498Z,1.55
2023-01-08T11:38:49.136Z,1.58
2023-01-08T11:41:39.516Z,1.50
2023-01-08T11:44:22.184Z,0.73
2023-01-08T11:47:01.480Z,0.55
2023-01-08T11:49:53.390Z,0.82
2023-01-08T11:52:35.535Z,1.15
2023-01-08T11:55:17.154Z,0.57
2023-01-08T11:57:57.526Z,0.80
2023-01-08T12:00:43.035Z,0.50
2023-01-08T12:03:26.055Z,0.68
2023-01-08T12:08:33.964Z,0.57
2023-01-08T12:11:13.451Z,0.73
2023-01-08T12:14:01.676Z,0.68
2023-01-08T12:16:42.614Z,0.43
2023-01-08T12:19:23.559Z,0.98
2023-01-08T12:22:11.138Z,1.05
2023-01-08T12:24:54.499Z,0.65
2023-01-08T12:27:55.370Z,0.65
2023-01-08T12:30:32.246Z,0.55
2023-01-08T12:33:04.541Z,0.55
2023-01-08T12:35:37.759Z,0.90
2023-01-08T12:38:10.575Z,0.75
2023-01-08T12:43:14.998Z,0.55
2023-01-08T12:45:46.774Z,0.85
2023-01-08T12:48:17.714Z,0.87
2023-01-08T12:50:57.843Z,0.70
2023-01-08T12:53:37.100Z,0.73
2023-01-08T12:56:12.237Z,0.73
2023-01-08T12:58:54.853Z,1.75
2023-01-08T13:01:34.729Z,0.40
2023-01-08T13:04:04.240Z,0.65
2023-01-08T13:06:42.378Z,0.52
2023-01-08T13:09:23.834Z,0.40
2023-01-08T13:11:55.427Z,0.52
2023-01-08T13:14:26.235Z,0.30
2023-01-08T13:17:07.089Z,0.50
2023-01-08T13:19:41.617Z,0.40
2023-01-08T13:22:25.023Z,0.30
2023-01-08T13:24:52.934Z,0.45
2023-01-08T13:27:30.614Z,0.90
2023-01-08T13:29:58.667Z,0.52
2023-01-08T13:32:43.910Z,0.68
2023-01-08T13:35:22.203Z,0.57
2023-01-08T13:38:06.364Z,0.80
2023-01-08T13:40:38.796Z,0.85
2023-01-08T13:43:13.003Z,0.35
2023-01-08T13:45:41.415Z,4.53
2023-01-08T13:48:22.677Z,1.05
2023-01-08T13:50:50.790Z,0.93
2023-01-08T13:53:20.798Z,1.08
2023-01-08T13:55:56.596Z,0.73
2023-01-08T13:58:28.562Z,0.60
2023-01-08T14:00:58.697Z,1.63
2023-01-08T14:03:28.054Z,0.55
2023-01-08T14:06:06.889Z,0.45
2023-01-08T14:08:35.778Z,1.70
2023-01-08T14:11:04.833Z,0.50
2023-01-08T14:13:35.689Z,1.08
2023-01-08T14:16:06.768Z,2.20
2023-01-08T14:18:35.223Z,1.52
2023-01-08T14:21:03.878Z,0.65
2023-01-08T14:23:36.004Z,0.52
2023-01-08T14:26:08.498Z,1.15
2023-01-08T14:28:36.657Z,1.00
2023-01-08T14:31:04.250Z,1.40
2023-01-08T14:33:35.622Z,0.88
2023-01-08T14:36:07.456Z,1.63
2023-01-08T14:38:35.012Z,5.63
2023-01-08T14:41:06.659Z,6.35
2023-01-08T14:43:35.709Z,5.25
2023-01-08T14:46:03.847Z,2.45
2023-01-08T14:48:40.548Z,4.93
2023-01-08T14:51:11.853Z,4.32
2023-01-08T14:53:44.254Z,2.65
2023-01-08T14:56:15.876Z,3.10
2023-01-08T14:58:45.002Z,3.33
2023-01-08T15:01:17.440Z,2.95
2023-01-08T15:03:46.379Z,3.53
2023-01-08T15:06:24.901Z,4.40
2023-01-08T15:08:52.584Z,2.75
2023-01-08T15:11:25.921Z,2.42
2023-01-08T15:13:54.838Z,2.20
2023-01-08T15:16:29.930Z,2.42
2023-01-08T15:19:05.203Z,2.90
2023-01-08T15:21:33.408Z,3.08
2023-01-08T15:24:03.121Z,4.18
2023-01-08T15:26:33.032Z,3.25
2023-01-08T15:29:02.738Z,3.53
2023-01-08T15:31:33.099Z,2.30
2023-01-08T15:34:01.930Z,3.95
2023-01-08T15:36:29.540Z,2.92
2023-01-08T15:38:57.124Z,3.25
2023-01-08T15:41:42.253Z,3.08
2023-01-08T15:44:13.324Z,3.15
2023-01-08T15:46:40.988Z,6.25
2023-01-08T15:49:08.513Z,3.78
2023-01-08T15:51:41.483Z,3.58
2023-01-08T15:54:12.525Z,4.22
2023-01-08T15:56:40.315Z,4.90
2023-01-08T15:59:07.857Z,5.45
2023-01-08T16:01:36.942Z,4.78
2023-01-08T16:04:04.767Z,4.70
2023-01-08T16:06:32.535Z,5.18
2023-01-08T16:09:01.596Z,4.90
2023-01-08T16:11:29.267Z,4.60
2023-01-08T16:13:56.786Z,4.05
2023-01-08T16:16:24.353Z,6.03
2023-01-08T16:18:53.505Z,5.18
2023-01-08T16:21:21.161Z,5.80
2023-01-08T16:23:48.727Z,6.47
2023-01-08T16:26:17.430Z,5.30
2023-01-08T16:28:44.991Z,6.03
2023-01-08T16:31:12.550Z,7.82
2023-01-08T16:33:40.080Z,4.85
2023-01-08T16:36:10.115Z,5.57
2023-01-08T16:38:37.719Z,5.22
2023-01-08T16:41:05.628Z,7.18
2023-01-08T16:43:40.580Z,6.30
2023-01-08T16:46:12.980Z,6.22
2023-01-08T16:48:41.486Z,6.47
2023-01-08T16:51:11.382Z,6.70
2023-01-08T16:53:39.031Z,5.72
2023-01-08T16:56:07.318Z,6.10
2023-01-08T16:58:35.948Z,7.70
2023-01-08T17:01:07.944Z,6.43
2023-01-08T17:03:35.845Z,6.75
2023-01-08T17:06:05.187Z,5.10
2023-01-08T17:08:34.147Z,5.53
2023-01-08T17:11:01.775Z,7.82
2023-01-08T17:13:29.328Z,7.90
2023-01-08T17:15:59.121Z,8.30
2023-01-08T17:18:27.467Z,6.40
2023-01-08T17:20:55.663Z,8.40
2023-01-08T17:23:27.004Z,6.90
2023-01-08T17:25:56.635Z,6.95
2023-01-08T17:28:28.380Z,6.93
2023-01-08T17:31:02.106Z,5.80
2023-01-08T17:33:29.681Z,6.05
2023-01-08T17:35:57.678Z,5.35
2023-01-08T17:38:25.392Z,8.05
2023-01-08T17:40:53.080Z,7.03
2023-01-08T17:43:22.013Z,6.10
2023-01-08T17:45:49.612Z,5.57
2023-01-08T17:48:17.247Z,7.13
2023-01-08T17:50:44.794Z,7.45
2023-01-08T17:53:12.360Z,8.10
2023-01-08T17:55:41.461Z,9.45
2023-01-08T17:58:09.013Z,9.10
2023-01-08T18:00:38.074Z,7.30
2023-01-08T18:03:05.616Z,6.35
2023-01-08T18:05:33.969Z,6.70
2023-01-08T18:08:01.637Z,11.52
2023-01-08T18:10:29.295Z,7.63
2023-01-08T18:12:56.835Z,6.68
2023-01-08T18:15:24.507Z,6.05
2023-01-08T18:17:53.512Z,8.05
2023-01-08T18:20:21.139Z,6.97
2023-01-08T18:22:48.730Z,8.77
2023-01-08T18:25:16.393Z,8.23
2023-01-08T18:27:44.050Z,7.45
2023-01-08T18:30:12.571Z,7.90
2023-01-08T18:32:40.158Z,8.43
2023-01-08T18:35:10.124Z,6.80
2023-01-08T18:37:37.903Z,7.78
2023-01-08T18:40:06.358Z,7.90
2023-01-08T18:42:33.988Z,7.03
2023-01-08T18:45:02.939Z,6.70
2023-01-08T18:47:31.736Z,7.68
2023-01-08T18:50:03.127Z,6.72
2023-01-08T18:52:32.136Z,7.45
2023-01-08T18:55:01.849Z,18.25
2023-01-08T18:57:29.575Z,11.95
2023-01-08T18:59:57.128Z,9.05
2023-01-08T19:02:27.960Z,6.93
2023-01-08T19:04:55.630Z,7.50
2023-01-08T19:07:23.274Z,7.47
2023-01-08T19:09:52.507Z,6.13
2023-01-08T19:12:20.131Z,8.38
2023-01-08T19:14:48.717Z,8.82
2023-01-08T19:17:16.277Z,9.02
2023-01-08T19:19:43.849Z,9.77
2023-01-08T19:22:11.426Z,7.20
2023-01-08T19:24:39.032Z,10.77
2023-01-08T19:27:08.174Z,8.80
2023-01-08T19:29:35.993Z,8.43
2023-01-08T19:32:03.849Z,10.32
2023-01-08T19:34:31.770Z,8.15
2023-01-08T19:37:01.041Z,7.82
2023-01-08T19:39:29.854Z,8.18
2023-01-08T19:42:15.423Z,8.02
2023-01-08T19:44:44.861Z,8.75
2023-01-08T19:47:12.602Z,7.35
2023-01-08T19:49:41.456Z,7.50
2023-01-08T19:52:09.224Z,8.63
2023-01-08T19:54:37.888Z,7.40
2023-01-08T19:57:05.531Z,8.50
2023-01-08T19:59:33.166Z,8.20
2023-01-08T20:02:04.825Z,6.90
2023-01-08T20:04:32.793Z,7.80
2023-01-08T20:07:01.112Z,7.90
2023-01-08T20:09:29.193Z,8.30
2023-01-08T20:11:57.491Z,7.65
2023-01-08T20:14:25.177Z,9.50
2023-01-08T20:16:52.745Z,10.70
2023-01-08T20:19:24.040Z,12.02
2023-01-08T20:21:51.763Z,9.48
2023-01-08T20:24:19.451Z,6.97
2023-01-08T20:26:47.590Z,8.30
2023-01-08T20:29:16.656Z,7.65
2023-01-08T20:31:44.487Z,7.65
2023-01-08T20:34:15.343Z,7.00
2023-01-08T20:36:45.322Z,7.82
2023-01-08T20:39:15.590Z,11.48
2023-01-08T20:41:50.273Z,7.63
2023-01-08T20:44:29.138Z,8.68
2023-01-08T20:46:56.777Z,8.95
2023-01-08T20:49:26.416Z,8.80
2023-01-08T20:51:59.903Z,10.95
2023-01-08T20:54:29.235Z,10.00
2023-01-08T20:56:57.745Z,10.15
2023-01-08T20:59:25.759Z,9.90
2023-01-08T21:01:53.670Z,11.48
2023-01-08T21:04:21.824Z,7.82
2023-01-08T21:06:49.668Z,11.13
2023-01-08T21:09:18.585Z,10.68
2023-01-08T21:11:46.231Z,9.57
2023-01-08T21:14:14.294Z,14.60
2023-01-08T21:16:41.933Z,10.93
2023-01-08T21:19:10.277Z,11.00
2023-01-08T21:21:40.237Z,9.68
2023-01-08T21:24:10.560Z,11.38
2023-01-08T21:26:39.894Z,8.73
2023-01-08T21:29:08.947Z,12.90
2023-01-08T21:31:37.660Z,8.93
2023-01-08T21:34:06.085Z,8.70
2023-01-08T21:36:33.984Z,7.97
2023-01-08T21:39:02.602Z,8.52
2023-01-08T21:41:48.879Z,11.95
2023-01-08T21:44:36.640Z,11.73
2023-01-08T21:47:07.359Z,11.85
2023-01-08T21:49:35.939Z,10.45
2023-01-08T21:52:21.660Z,9.98
2023-01-08T21:54:49.196Z,8.88
2023-01-08T21:57:17.387Z,8.75
2023-01-08T21:59:46.341Z,9.52
2023-01-08T22:02:16.506Z,11.82
2023-01-08T22:04:44.577Z,11.82
2023-01-08T22:07:12.563Z,10.23
2023-01-08T22:09:40.310Z,11.07
2023-01-08T22:12:08.474Z,9.05
2023-01-08T22:14:36.494Z,8.13
2023-01-08T22:17:08.267Z,9.55
2023-01-08T22:19:35.916Z,10.10
2023-01-08T22:22:03.462Z,9.60
2023-01-08T22:24:31.184Z,11.30
2023-01-08T22:26:58.682Z,9.75
2023-01-08T22:29:26.247Z,6.93
2023-01-08T22:31:53.830Z,8.90
2023-01-08T22:34:22.796Z,7.63
2023-01-08T22:36:51.667Z,8.05
2023-01-08T22:39:19.611Z,7.28
2023-01-08T22:41:47.155Z,8.55
2023-01-08T22:44:14.889Z,8.40
2023-01-08T22:46:42.735Z,10.77
2023-01-08T22:49:11.643Z,12.02
2023-01-08T22:51:40.921Z,8.40
2023-01-08T22:54:08.628Z,8.10
2023-01-08T22:56:36.158Z,8.63
2023-01-08T22:59:03.958Z,10.38
2023-01-08T23:01:31.759Z,8.68
2023-01-08T23:04:01.662Z,9.63
2023-01-08T23:06:31.439Z,8.23
2023-01-08T23:09:01.121Z,8.90
2023-01-08T23:11:28.755Z,8.35
2023-01-08T23:13:57.077Z,7.82
2023-01-08T23:16:25.811Z,7.63
2023-01-08T23:18:54.311Z,9.00
2023-01-08T23:21:25.920Z,9.23
2023-01-08T23:23:53.888Z,7.90
2023-01-08T23:26:24.913Z,8.77
2023-01-08T23:28:53.977Z,8.57
2023-01-08T23:31:23.371Z,7.13
2023-01-08T23:33:51.481Z,11.50
2023-01-08T23:36:21.002Z,8.85
2023-01-08T23:38:50.377Z,9.35
2023-01-08T23:41:18.986Z,9.50
2023-01-08T23:43:48.779Z,7.97
2023-01-08T23:46:16.557Z,8.32
2023-01-08T23:48:44.122Z,8.25
2023-01-08T23:51:11.663Z,8.27
2023-01-08T23:53:39.433Z,7.70
2023-01-08T23:56:07.503Z,8.60
2023-01-08T23:58:35.046Z,8.07
